sensor_id;sensor_type;location;lat;lon;timestamp;temperature;humidity
21622;DHT22;10973;46.706;12.340;2023-08-06T14:02:18;17.70;94.70
21622;DHT22;10973;46.706;12.340;2023-08-06T14:04:45;17.30;96.40
21622;DHT22;10973;46.706;12.340;2023-08-06T14:07:13;16.90;96.00
21622;DHT22;10973;46.706;12.340;2023-08-06T14:09:40;16.70;92.60
21622;DHT22;10973;46.706;12.340;2023-08-06T14:12:08;16.40;92.90
21622;DHT22;10973;46.706;12.340;2023-08-06T14:14:36;16.40;93.50
21622;DHT22;10973;46.706;12.340;2023-08-06T14:17:04;16.30;94.10
21622;DHT22;10973;46.706;12.340;2023-08-06T14:19:32;16.20;95.00
21622;DHT22;10973;46.706;12.340;2023-08-06T14:22:00;16.00;94.70
21622;DHT22;10973;46.706;12.340;2023-08-06T14:24:27;15.70;94.60
21622;DHT22;10973;46.706;12.340;2023-08-06T14:26:55;15.70;93.70
21622;DHT22;10973;46.706;12.340;2023-08-06T14:29:23;15.70;94.70
21622;DHT22;10973;46.706;12.340;2023-08-06T14:31:51;15.80;94.60
21622;DHT22;10973;46.706;12.340;2023-08-06T14:34:19;15.90;95.10
21622;DHT22;10973;46.706;12.340;2023-08-06T14:36:46;16.10;95.50
21622;DHT22;10973;46.706;12.340;2023-08-06T14:39:13;16.20;95.50
21622;DHT22;10973;46.706;12.340;2023-08-06T14:41:41;16.60;94.70
21622;DHT22;10973;46.706;12.340;2023-08-06T14:44:08;17.10;95.00
21622;DHT22;10973;46.706;12.340;2023-08-06T14:46:36;17.20;94.00
21622;DHT22;10973;46.706;12.340;2023-08-06T14:49:03;17.60;94.90
21622;DHT22;10973;46.706;12.340;2023-08-06T14:51:31;18.20;94.90
21622;DHT22;10973;46.706;12.340;2023-08-06T14:53:58;18.60;93.70
21622;DHT22;10973;46.706;12.340;2023-08-06T14:56:25;19.00;93.80
21622;DHT22;10973;46.706;12.340;2023-08-06T14:58:53;19.30;92.00
21622;DHT22;10973;46.706;12.340;2023-08-06T15:01:20;19.70;92.50
21622;DHT22;10973;46.706;12.340;2023-08-06T15:03:48;19.90;91.80
21622;DHT22;10973;46.706;12.340;2023-08-06T15:06:15;20.20;92.20
21622;DHT22;10973;46.706;12.340;2023-08-06T15:08:43;20.30;90.30
21622;DHT22;10973;46.706;12.340;2023-08-06T15:11:10;20.50;90.10
21622;DHT22;10973;46.706;12.340;2023-08-06T15:13:40;20.80;89.20
21622;DHT22;10973;46.706;12.340;2023-08-06T15:16:07;20.90;86.70
21622;DHT22;10973;46.706;12.340;2023-08-06T15:18:35;21.00;82.60
21622;DHT22;10973;46.706;12.340;2023-08-06T15:21:02;21.10;82.80
21622;DHT22;10973;46.706;12.340;2023-08-06T15:23:30;20.70;85.00
21622;DHT22;10973;46.706;12.340;2023-08-06T15:25:57;20.80;83.90
21622;DHT22;10973;46.706;12.340;2023-08-06T15:28:25;20.90;84.50
21622;DHT22;10973;46.706;12.340;2023-08-06T15:30:54;20.80;82.50
21622;DHT22;10973;46.706;12.340;2023-08-06T15:33:22;20.70;83.20
21622;DHT22;10973;46.706;12.340;2023-08-06T15:35:50;20.10;85.80
21622;DHT22;10973;46.706;12.340;2023-08-06T15:38:17;19.70;86.20
21622;DHT22;10973;46.706;12.340;2023-08-06T15:40:45;19.30;86.80
21622;DHT22;10973;46.706;12.340;2023-08-06T15:43:13;18.90;89.30
21622;DHT22;10973;46.706;12.340;2023-08-06T15:45:40;18.80;88.60
21622;DHT22;10973;46.706;12.340;2023-08-06T15:48:07;18.60;88.40
21622;DHT22;10973;46.706;12.340;2023-08-06T15:50:37;18.50;87.50
21622;DHT22;10973;46.706;12.340;2023-08-06T15:53:05;18.80;86.60
21622;DHT22;10973;46.706;12.340;2023-08-06T15:55:33;19.30;84.60
21622;DHT22;10973;46.706;12.340;2023-08-06T15:58:00;19.70;84.60
21622;DHT22;10973;46.706;12.340;2023-08-06T16:00:28;19.60;83.90
21622;DHT22;10973;46.706;12.340;2023-08-06T16:02:56;19.50;82.60
21622;DHT22;10973;46.706;12.340;2023-08-06T16:05:23;19.70;83.00
21622;DHT22;10973;46.706;12.340;2023-08-06T16:07:51;19.90;82.60
21622;DHT22;10973;46.706;12.340;2023-08-06T16:10:18;19.90;81.30
21622;DHT22;10973;46.706;12.340;2023-08-06T16:12:46;19.90;80.30
21622;DHT22;10973;46.706;12.340;2023-08-06T16:15:14;19.60;79.90
21622;DHT22;10973;46.706;12.340;2023-08-06T16:17:41;19.60;80.90
21622;DHT22;10973;46.706;12.340;2023-08-06T16:20:09;19.70;80.10
21622;DHT22;10973;46.706;12.340;2023-08-06T16:22:37;19.60;80.70
21622;DHT22;10973;46.706;12.340;2023-08-06T16:25:05;19.50;79.80
21622;DHT22;10973;46.706;12.340;2023-08-06T16:27:32;19.10;79.40
21622;DHT22;10973;46.706;12.340;2023-08-06T16:29:59;19.00;79.60
21622;DHT22;10973;46.706;12.340;2023-08-06T16:32:31;18.70;80.90
21622;DHT22;10973;46.706;12.340;2023-08-06T16:34:58;18.70;81.20
21622;DHT22;10973;46.706;12.340;2023-08-06T16:37:26;18.60;80.40
21622;DHT22;10973;46.706;12.340;2023-08-06T16:39:53;18.50;81.30
21622;DHT22;10973;46.706;12.340;2023-08-06T16:42:21;18.40;80.40
21622;DHT22;10973;46.706;12.340;2023-08-06T16:44:48;18.30;78.50
21622;DHT22;10973;46.706;12.340;2023-08-06T16:47:16;18.20;80.20
21622;DHT22;10973;46.706;12.340;2023-08-06T16:49:43;18.20;80.90
21622;DHT22;10973;46.706;12.340;2023-08-06T16:52:10;18.20;82.30
21622;DHT22;10973;46.706;12.340;2023-08-06T16:54:38;18.10;81.20
21622;DHT22;10973;46.706;12.340;2023-08-06T16:57:06;17.80;82.90
21622;DHT22;10973;46.706;12.340;2023-08-06T16:59:33;17.70;81.80
21622;DHT22;10973;46.706;12.340;2023-08-06T17:02:01;17.60;81.50
21622;DHT22;10973;46.706;12.340;2023-08-06T17:04:28;17.50;80.00
21622;DHT22;10973;46.706;12.340;2023-08-06T17:06:56;17.30;77.60
21622;DHT22;10973;46.706;12.340;2023-08-06T17:09:26;17.30;80.30
21622;DHT22;10973;46.706;12.340;2023-08-06T17:11:53;17.20;79.90
21622;DHT22;10973;46.706;12.340;2023-08-06T17:14:21;17.10;79.20
21622;DHT22;10973;46.706;12.340;2023-08-06T17:23:55;16.80;81.20
21622;DHT22;10973;46.706;12.340;2023-08-06T17:26:23;16.80;80.00
21622;DHT22;10973;46.706;12.340;2023-08-06T17:28:50;16.80;80.50
21622;DHT22;10973;46.706;12.340;2023-08-06T17:31:18;16.60;77.50
21622;DHT22;10973;46.706;12.340;2023-08-06T17:33:48;16.70;78.70
21622;DHT22;10973;46.706;12.340;2023-08-06T17:36:18;16.60;77.30
21622;DHT22;10973;46.706;12.340;2023-08-06T17:38:46;16.60;78.10
21622;DHT22;10973;46.706;12.340;2023-08-06T17:41:14;16.50;79.60
21622;DHT22;10973;46.706;12.340;2023-08-06T17:43:44;16.50;82.60
21622;DHT22;10973;46.706;12.340;2023-08-06T17:46:11;16.40;84.20
21622;DHT22;10973;46.706;12.340;2023-08-06T17:48:39;16.40;85.60
21622;DHT22;10973;46.706;12.340;2023-08-06T17:51:06;16.40;85.80
21622;DHT22;10973;46.706;12.340;2023-08-06T17:53:34;16.30;86.10
21622;DHT22;10973;46.706;12.340;2023-08-06T17:56:02;16.30;86.50
21622;DHT22;10973;46.706;12.340;2023-08-06T17:58:30;16.30;87.10
21622;DHT22;10973;46.706;12.340;2023-08-06T18:01:00;16.20;87.00
21622;DHT22;10973;46.706;12.340;2023-08-06T18:03:30;16.20;88.50
21622;DHT22;10973;46.706;12.340;2023-08-06T18:05:59;16.10;88.00
21622;DHT22;10973;46.706;12.340;2023-08-06T18:08:26;16.00;87.40
21622;DHT22;10973;46.706;12.340;2023-08-06T18:10:54;16.00;87.50
21622;DHT22;10973;46.706;12.340;2023-08-06T18:13:22;16.10;88.50
21622;DHT22;10973;46.706;12.340;2023-08-06T18:15:50;16.00;89.20
21622;DHT22;10973;46.706;12.340;2023-08-06T18:18:21;15.90;89.70
21622;DHT22;10973;46.706;12.340;2023-08-06T18:20:49;15.80;89.10
21622;DHT22;10973;46.706;12.340;2023-08-06T18:23:16;15.80;90.00
21622;DHT22;10973;46.706;12.340;2023-08-06T18:25:44;15.80;90.10
21622;DHT22;10973;46.706;12.340;2023-08-06T18:28:11;15.70;88.30
21622;DHT22;10973;46.706;12.340;2023-08-06T18:30:42;15.70;89.30
21622;DHT22;10973;46.706;12.340;2023-08-06T18:33:10;15.60;90.90
21622;DHT22;10973;46.706;12.340;2023-08-06T18:35:41;15.60;90.90
21622;DHT22;10973;46.706;12.340;2023-08-06T18:38:09;15.60;91.60
21622;DHT22;10973;46.706;12.340;2023-08-06T18:40:37;15.60;90.70
21622;DHT22;10973;46.706;12.340;2023-08-06T18:43:04;15.50;90.30
21622;DHT22;10973;46.706;12.340;2023-08-06T18:45:32;15.40;89.90
21622;DHT22;10973;46.706;12.340;2023-08-06T18:48:00;15.30;90.10
21622;DHT22;10973;46.706;12.340;2023-08-06T18:50:28;15.40;90.30
21622;DHT22;10973;46.706;12.340;2023-08-06T18:52:55;15.40;90.40
21622;DHT22;10973;46.706;12.340;2023-08-06T18:55:23;15.30;91.00
21622;DHT22;10973;46.706;12.340;2023-08-06T18:57:51;15.20;91.70
21622;DHT22;10973;46.706;12.340;2023-08-06T19:00:18;15.10;90.80
21622;DHT22;10973;46.706;12.340;2023-08-06T19:02:46;15.20;90.80
21622;DHT22;10973;46.706;12.340;2023-08-06T19:05:13;15.20;90.80
21622;DHT22;10973;46.706;12.340;2023-08-06T19:07:41;15.00;91.10
21622;DHT22;10973;46.706;12.340;2023-08-06T19:10:08;15.00;91.10
21622;DHT22;10973;46.706;12.340;2023-08-06T19:12:36;14.90;90.80
21622;DHT22;10973;46.706;12.340;2023-08-06T19:15:04;14.90;90.10
21622;DHT22;10973;46.706;12.340;2023-08-06T19:17:32;14.90;90.50
21622;DHT22;10973;46.706;12.340;2023-08-06T19:20:00;14.80;91.00
21622;DHT22;10973;46.706;12.340;2023-08-06T19:22:27;14.80;91.10
21622;DHT22;10973;46.706;12.340;2023-08-06T19:24:55;14.80;91.80
21622;DHT22;10973;46.706;12.340;2023-08-06T19:27:22;14.70;91.30
21622;DHT22;10973;46.706;12.340;2023-08-06T19:29:50;14.70;91.20
21622;DHT22;10973;46.706;12.340;2023-08-06T19:32:17;14.70;91.30
21622;DHT22;10973;46.706;12.340;2023-08-06T19:34:45;14.70;91.40
21622;DHT22;10973;46.706;12.340;2023-08-06T19:37:12;14.70;91.40
21622;DHT22;10973;46.706;12.340;2023-08-06T19:39:40;14.70;91.80
21622;DHT22;10973;46.706;12.340;2023-08-06T19:42:07;14.60;91.30
21622;DHT22;10973;46.706;12.340;2023-08-06T19:44:35;14.60;91.60
21622;DHT22;10973;46.706;12.340;2023-08-06T19:47:02;14.60;91.10
21622;DHT22;10973;46.706;12.340;2023-08-06T19:49:30;14.40;91.80
21622;DHT22;10973;46.706;12.340;2023-08-06T19:51:57;14.50;91.60
21622;DHT22;10973;46.706;12.340;2023-08-06T19:54:25;14.50;90.90
21622;DHT22;10973;46.706;12.340;2023-08-06T19:56:52;14.50;92.00
21622;DHT22;10973;46.706;12.340;2023-08-06T19:59:20;14.50;91.90
21622;DHT22;10973;46.706;12.340;2023-08-06T20:01:48;14.50;92.00
21622;DHT22;10973;46.706;12.340;2023-08-06T20:04:17;14.50;92.20
21622;DHT22;10973;46.706;12.340;2023-08-06T20:06:44;14.40;91.90
21622;DHT22;10973;46.706;12.340;2023-08-06T20:09:15;14.30;92.00
21622;DHT22;10973;46.706;12.340;2023-08-06T20:11:43;14.10;91.80
21622;DHT22;10973;46.706;12.340;2023-08-06T20:14:11;14.10;91.80
21622;DHT22;10973;46.706;12.340;2023-08-06T20:16:38;14.10;91.40
21622;DHT22;10973;46.706;12.340;2023-08-06T20:19:05;14.00;91.30
21622;DHT22;10973;46.706;12.340;2023-08-06T20:21:33;13.90;90.70
21622;DHT22;10973;46.706;12.340;2023-08-06T20:24:00;13.90;92.10
21622;DHT22;10973;46.706;12.340;2023-08-06T20:26:28;13.80;92.30
21622;DHT22;10973;46.706;12.340;2023-08-06T20:28:55;13.60;92.10
21622;DHT22;10973;46.706;12.340;2023-08-06T20:31:23;13.70;93.80
21622;DHT22;10973;46.706;12.340;2023-08-06T20:33:51;13.30;95.10
21622;DHT22;10973;46.706;12.340;2023-08-06T20:36:18;13.20;95.50
21622;DHT22;10973;46.706;12.340;2023-08-06T20:38:48;13.10;94.90
21622;DHT22;10973;46.706;12.340;2023-08-06T20:41:16;13.20;94.30
21622;DHT22;10973;46.706;12.340;2023-08-06T20:43:43;13.20;93.60
21622;DHT22;10973;46.706;12.340;2023-08-06T20:46:11;13.00;94.80
21622;DHT22;10973;46.706;12.340;2023-08-06T20:48:38;13.00;94.10
21622;DHT22;10973;46.706;12.340;2023-08-06T20:51:06;13.00;94.10
21622;DHT22;10973;46.706;12.340;2023-08-06T20:53:33;12.90;95.00
21622;DHT22;10973;46.706;12.340;2023-08-06T20:56:02;12.80;95.40
21622;DHT22;10973;46.706;12.340;2023-08-06T20:58:31;12.80;94.60
21622;DHT22;10973;46.706;12.340;2023-08-06T21:01:00;12.70;94.80
21622;DHT22;10973;46.706;12.340;2023-08-06T21:03:28;12.60;95.30
21622;DHT22;10973;46.706;12.340;2023-08-06T21:06:03;12.60;94.50
21622;DHT22;10973;46.706;12.340;2023-08-06T21:08:34;12.60;94.60
21622;DHT22;10973;46.706;12.340;2023-08-06T21:11:03;12.70;94.60
21622;DHT22;10973;46.706;12.340;2023-08-06T21:13:38;12.70;95.10
21622;DHT22;10973;46.706;12.340;2023-08-06T21:16:06;12.60;94.50
21622;DHT22;10973;46.706;12.340;2023-08-06T21:18:34;12.60;94.40
21622;DHT22;10973;46.706;12.340;2023-08-06T21:21:03;12.60;95.30
21622;DHT22;10973;46.706;12.340;2023-08-06T21:23:32;12.40;95.70
21622;DHT22;10973;46.706;12.340;2023-08-06T21:26:04;12.20;96.60
21622;DHT22;10973;46.706;12.340;2023-08-06T21:28:34;12.10;96.80
21622;DHT22;10973;46.706;12.340;2023-08-06T21:31:04;12.10;96.70
21622;DHT22;10973;46.706;12.340;2023-08-06T21:33:33;12.00;97.30
21622;DHT22;10973;46.706;12.340;2023-08-06T21:36:02;11.80;98.00
21622;DHT22;10973;46.706;12.340;2023-08-06T21:38:35;11.80;98.50
21622;DHT22;10973;46.706;12.340;2023-08-06T21:41:08;11.70;98.80
21622;DHT22;10973;46.706;12.340;2023-08-06T21:43:41;11.50;99.10
21622;DHT22;10973;46.706;12.340;2023-08-06T21:46:17;11.40;99.80
21622;DHT22;10973;46.706;12.340;2023-08-06T21:48:47;11.30;99.80
21622;DHT22;10973;46.706;12.340;2023-08-06T21:51:17;11.30;99.90
21622;DHT22;10973;46.706;12.340;2023-08-06T21:53:47;11.20;99.90
21622;DHT22;10973;46.706;12.340;2023-08-06T21:56:16;11.10;99.90
21622;DHT22;10973;46.706;12.340;2023-08-06T21:58:50;11.10;99.90
21622;DHT22;10973;46.706;12.340;2023-08-06T22:01:18;11.10;99.90
21622;DHT22;10973;46.706;12.340;2023-08-06T22:03:45;11.10;99.90
21622;DHT22;10973;46.706;12.340;2023-08-06T22:06:13;11.10;99.90
21622;DHT22;10973;46.706;12.340;2023-08-06T22:08:42;11.00;99.90
21622;DHT22;10973;46.706;12.340;2023-08-06T22:11:10;10.90;99.90
21622;DHT22;10973;46.706;12.340;2023-08-06T22:13:38;10.70;99.90
21622;DHT22;10973;46.706;12.340;2023-08-06T22:16:06;10.60;99.90
21622;DHT22;10973;46.706;12.340;2023-08-06T22:18:34;10.80;99.90
21622;DHT22;10973;46.706;12.340;2023-08-06T22:21:01;10.70;99.90
21622;DHT22;10973;46.706;12.340;2023-08-06T22:23:29;10.60;99.90
21622;DHT22;10973;46.706;12.340;2023-08-06T22:25:57;10.50;99.90
21622;DHT22;10973;46.706;12.340;2023-08-06T22:28:26;10.40;99.90
21622;DHT22;10973;46.706;12.340;2023-08-06T22:30:55;10.50;99.90
21622;DHT22;10973;46.706;12.340;2023-08-06T22:33:22;10.40;99.90
21622;DHT22;10973;46.706;12.340;2023-08-06T22:35:50;10.40;99.90
21622;DHT22;10973;46.706;12.340;2023-08-06T22:38:18;10.40;99.90
21622;DHT22;10973;46.706;12.340;2023-08-06T22:40:45;10.30;99.90
21622;DHT22;10973;46.706;12.340;2023-08-06T22:43:13;10.20;99.90
21622;DHT22;10973;46.706;12.340;2023-08-06T22:45:40;10.10;99.90
21622;DHT22;10973;46.706;12.340;2023-08-06T22:48:08;10.10;99.90
21622;DHT22;10973;46.706;12.340;2023-08-06T22:50:35;10.10;99.90
21622;DHT22;10973;46.706;12.340;2023-08-06T22:53:03;9.90;99.90
21622;DHT22;10973;46.706;12.340;2023-08-06T22:55:30;10.00;99.90
21622;DHT22;10973;46.706;12.340;2023-08-06T22:58:00;9.90;99.90
21622;DHT22;10973;46.706;12.340;2023-08-06T23:00:28;9.90;99.90
21622;DHT22;10973;46.706;12.340;2023-08-06T23:02:55;9.90;99.90
21622;DHT22;10973;46.706;12.340;2023-08-06T23:05:36;9.90;99.90
21622;DHT22;10973;46.706;12.340;2023-08-06T23:08:04;9.90;99.90
21622;DHT22;10973;46.706;12.340;2023-08-06T23:10:32;9.80;99.90
21622;DHT22;10973;46.706;12.340;2023-08-06T23:13:00;9.80;99.90
21622;DHT22;10973;46.706;12.340;2023-08-06T23:15:28;9.90;99.90
21622;DHT22;10973;46.706;12.340;2023-08-06T23:17:55;9.70;99.90
21622;DHT22;10973;46.706;12.340;2023-08-06T23:20:23;9.70;99.90
21622;DHT22;10973;46.706;12.340;2023-08-06T23:22:50;9.60;99.90
21622;DHT22;10973;46.706;12.340;2023-08-06T23:25:17;9.60;99.90
21622;DHT22;10973;46.706;12.340;2023-08-06T23:27:45;9.50;99.90
21622;DHT22;10973;46.706;12.340;2023-08-06T23:30:12;9.50;99.90
21622;DHT22;10973;46.706;12.340;2023-08-06T23:32:41;9.40;99.90
21622;DHT22;10973;46.706;12.340;2023-08-06T23:35:08;9.40;99.90
21622;DHT22;10973;46.706;12.340;2023-08-06T23:37:36;9.50;99.90
21622;DHT22;10973;46.706;12.340;2023-08-06T23:40:04;9.40;99.90
21622;DHT22;10973;46.706;12.340;2023-08-06T23:42:32;9.40;99.90
21622;DHT22;10973;46.706;12.340;2023-08-06T23:44:59;9.20;99.90
21622;DHT22;10973;46.706;12.340;2023-08-06T23:47:27;9.20;99.90
21622;DHT22;10973;46.706;12.340;2023-08-06T23:49:54;9.10;99.90
21622;DHT22;10973;46.706;12.340;2023-08-06T23:52:22;9.20;99.90
21622;DHT22;10973;46.706;12.340;2023-08-06T23:54:49;9.10;99.90
21622;DHT22;10973;46.706;12.340;2023-08-06T23:57:16;9.00;99.90
21622;DHT22;10973;46.706;12.340;2023-08-06T23:59:44;9.30;99.90
